Check out our new BloomSky Weather System.

Active alerts


No alerts


Thunder radar  blitzortung!


Rain radar more information rain snow radar


Visit our other weather sites:

Template documentation
and downloads

And another site



Weather Underground History page Text

Daily Summary for March 9, 2017 Units:  English    Metric   Both
« Previous Day
Next Day »
Daily Weekly Monthly Yearly Custom
  High: Low: Average:
Temperature: 78.4 °F 64.9 °F 71.7 °F
Dew Point: 70.5 °F 64.0 °F 68.1 °F
Humidity: 99 % 75 % 89 %
Wind Speed: 12.0 mph 0.0 mph 3 mph
Wind Gust: 12.0 mph - -
Wind:- - SE
Pressure: 30.20 in 30.04 in -
Precipitation: 0.00 in    
Historical Graphs
 
 
Tabular Data for March 9, 2017
Time Temperature Dew Point Pressure Wind Wind Speed Wind Gust Humidity Rainfall Rate (Hourly)
00:02 64.9 °F 64.0 °F 30.19 in ESE 3.0 mph 6.0 mph 97 % 0.00 in
00:07 64.9 °F 64.0 °F 30.19 in SE 2.0 mph 7.0 mph 97 % 0.00 in
00:12 64.9 °F 64.0 °F 30.19 in SSE 1.0 mph 7.0 mph 97 % 0.00 in
00:17 64.9 °F 64.0 °F 30.18 in East 2.0 mph 7.0 mph 97 % 0.00 in
00:22 64.9 °F 64.4 °F 30.18 in ESE 3.0 mph 5.0 mph 98 % 0.00 in
00:27 64.9 °F 64.4 °F 30.18 in ESE 2.0 mph 5.0 mph 98 % 0.00 in
00:32 65.1 °F 64.6 °F 30.18 in SE 3.0 mph 5.0 mph 98 % 0.00 in
00:37 65.1 °F 64.6 °F 30.18 in ENE 2.0 mph 5.0 mph 98 % 0.00 in
00:42 65.1 °F 64.6 °F 30.18 in SE 2.0 mph 6.0 mph 98 % 0.00 in
00:47 65.3 °F 64.8 °F 30.19 in SE 3.0 mph 7.0 mph 98 % 0.00 in
00:52 65.5 °F 64.9 °F 30.19 in ESE 3.0 mph 7.0 mph 98 % 0.00 in
00:57 65.5 °F 64.9 °F 30.19 in ESE 3.0 mph 7.0 mph 98 % 0.00 in
01:02 65.5 °F 64.9 °F 30.19 in SSE 1.0 mph 6.0 mph 98 % 0.00 in
01:07 65.5 °F 64.9 °F 30.19 in SE 2.0 mph 6.0 mph 98 % 0.00 in
01:12 65.5 °F 64.9 °F 30.18 in SE 2.0 mph 6.0 mph 98 % 0.00 in
01:17 65.5 °F 64.9 °F 30.18 in ESE 1.0 mph 5.0 mph 98 % 0.00 in
01:22 65.5 °F 64.9 °F 30.18 in Calm   5.0 mph 98 % 0.00 in
01:27 65.7 °F 65.1 °F 30.18 in ESE 2.0 mph 3.0 mph 98 % 0.00 in
01:32 65.7 °F 65.1 °F 30.18 in ESE 2.0 mph 3.0 mph 98 % 0.00 in
01:37 65.7 °F 65.1 °F 30.18 in East 1.0 mph 3.0 mph 98 % 0.00 in
01:42 65.7 °F 65.1 °F 30.18 in SSE 1.0 mph 4.0 mph 98 % 0.00 in
01:47 65.7 °F 65.1 °F 30.18 in ESE 3.0 mph 4.0 mph 98 % 0.00 in
01:52 65.8 °F 65.3 °F 30.18 in ESE 2.0 mph 4.0 mph 98 % 0.00 in
01:57 65.8 °F 65.3 °F 30.17 in ESE 5.0 mph 5.0 mph 98 % 0.00 in
02:02 65.8 °F 65.3 °F 30.17 in ESE 1.0 mph 6.0 mph 98 % 0.00 in
02:07 65.8 °F 65.3 °F 30.17 in SSE 2.0 mph 7.0 mph 98 % 0.00 in
02:12 66.0 °F 65.5 °F 30.17 in SE 4.0 mph 7.0 mph 98 % 0.00 in
02:17 66.0 °F 65.5 °F 30.17 in SSE 2.0 mph 7.0 mph 98 % 0.00 in
02:22 66.0 °F 65.5 °F 30.17 in East 3.0 mph 6.0 mph 98 % 0.00 in
02:24 66.0 °F 65.5 °F 30.17 in SE 4.0 mph 6.0 mph 98 % 0.00 in
02:29 66.0 °F 65.5 °F 30.17 in SE 1.0 mph 6.0 mph 98 % 0.00 in
02:34 66.0 °F 65.5 °F 30.17 in SSE 1.0 mph 5.0 mph 98 % 0.00 in
02:39 66.2 °F 65.7 °F 30.16 in SSE 1.0 mph 5.0 mph 98 % 0.00 in
02:44 66.2 °F 65.7 °F 30.16 in Calm   4.0 mph 98 % 0.00 in
02:49 66.2 °F 65.7 °F 30.16 in Calm   4.0 mph 98 % 0.00 in
02:54 66.2 °F 65.7 °F 30.16 in SE 2.0 mph 4.0 mph 98 % 0.00 in
02:59 66.2 °F 65.7 °F 30.17 in Calm   3.0 mph 98 % 0.00 in
03:04 66.2 °F 65.7 °F 30.16 in East 3.0 mph 3.0 mph 98 % 0.00 in
03:09 66.2 °F 65.7 °F 30.16 in East 1.0 mph 3.0 mph 98 % 0.00 in
03:15 66.2 °F 65.7 °F 30.16 in SE 2.0 mph 3.0 mph 98 % 0.00 in
03:20 66.2 °F 65.7 °F 30.15 in Calm   3.0 mph 98 % 0.00 in
03:25 66.2 °F 65.7 °F 30.16 in East 3.0 mph 3.0 mph 98 % 0.00 in
03:30 66.2 °F 65.7 °F 30.16 in East 1.0 mph 3.0 mph 98 % 0.00 in
03:35 66.2 °F 65.7 °F 30.15 in East 1.0 mph 4.0 mph 98 % 0.00 in
03:40 66.2 °F 65.7 °F 30.15 in ESE 1.0 mph 4.0 mph 98 % 0.00 in
03:45 66.2 °F 65.7 °F 30.15 in ESE 1.0 mph 4.0 mph 98 % 0.00 in
03:50 66.0 °F 65.5 °F 30.15 in SE 1.0 mph 4.0 mph 98 % 0.00 in
03:55 66.0 °F 65.5 °F 30.15 in Calm   4.0 mph 98 % 0.00 in
04:00 66.2 °F 65.7 °F 30.15 in ESE 2.0 mph 5.0 mph 98 % 0.00 in
04:05 66.2 °F 65.7 °F 30.15 in SSE 2.0 mph 5.0 mph 98 % 0.00 in
04:10 66.2 °F 65.7 °F 30.15 in Calm   5.0 mph 98 % 0.00 in
04:15 66.4 °F 65.8 °F 30.15 in ENE 2.0 mph 4.0 mph 98 % 0.00 in
04:20 66.4 °F 65.8 °F 30.15 in SE 2.0 mph 4.0 mph 98 % 0.00 in
04:25 66.4 °F 65.8 °F 30.15 in SSE 1.0 mph 4.0 mph 98 % 0.00 in
04:30 66.4 °F 65.8 °F 30.15 in ESE 2.0 mph 3.0 mph 98 % 0.00 in
04:35 66.4 °F 65.8 °F 30.16 in SE 1.0 mph 3.0 mph 98 % 0.00 in
04:40 66.6 °F 66.0 °F 30.16 in ESE 1.0 mph 3.0 mph 98 % 0.00 in
04:45 66.6 °F 66.0 °F 30.16 in SSE 2.0 mph 4.0 mph 98 % 0.00 in
04:50 66.6 °F 66.0 °F 30.16 in ESE 1.0 mph 4.0 mph 98 % 0.00 in
04:55 66.6 °F 66.0 °F 30.15 in East 1.0 mph 4.0 mph 98 % 0.00 in
05:00 66.6 °F 66.0 °F 30.15 in SE 1.0 mph 4.0 mph 98 % 0.00 in
05:05 66.6 °F 66.0 °F 30.15 in Calm   4.0 mph 98 % 0.00 in
05:10 66.6 °F 66.0 °F 30.15 in ESE 2.0 mph 4.0 mph 98 % 0.00 in
05:15 66.6 °F 66.0 °F 30.15 in ESE 1.0 mph 4.0 mph 98 % 0.00 in
05:20 66.6 °F 66.0 °F 30.15 in ESE 1.0 mph 3.0 mph 98 % 0.00 in
05:25 66.7 °F 66.2 °F 30.15 in ESE 1.0 mph 3.0 mph 98 % 0.00 in
05:30 66.7 °F 66.2 °F 30.16 in ESE 2.0 mph 2.0 mph 98 % 0.00 in
05:35 66.7 °F 66.2 °F 30.16 in SSE 2.0 mph 3.0 mph 98 % 0.00 in
05:41 66.7 °F 66.2 °F 30.16 in SE 1.0 mph 3.0 mph 98 % 0.00 in
05:46 66.7 °F 66.2 °F 30.16 in SE 1.0 mph 3.0 mph 98 % 0.00 in
05:51 66.7 °F 66.2 °F 30.16 in ESE 1.0 mph 3.0 mph 98 % 0.00 in
05:56 66.9 °F 66.4 °F 30.16 in Calm   3.0 mph 98 % 0.00 in
06:01 66.9 °F 66.4 °F 30.16 in SE 2.0 mph 3.0 mph 98 % 0.00 in
06:06 66.9 °F 66.4 °F 30.17 in SSE 4.0 mph 4.0 mph 98 % 0.00 in
06:08 66.9 °F 66.4 °F 30.16 in SE 1.0 mph 4.0 mph 98 % 0.00 in
06:13 66.9 °F 66.4 °F 30.17 in SE 2.0 mph 5.0 mph 98 % 0.00 in
06:18 66.9 °F 66.4 °F 30.16 in ESE 2.0 mph 5.0 mph 98 % 0.00 in
06:23 67.1 °F 66.6 °F 30.17 in ESE 1.0 mph 5.0 mph 98 % 0.00 in
06:28 67.1 °F 66.6 °F 30.17 in SSE 1.0 mph 4.0 mph 98 % 0.00 in
06:33 67.1 °F 66.7 °F 30.17 in Calm   4.0 mph 99 % 0.00 in
06:38 67.3 °F 66.7 °F 30.17 in SSE 3.0 mph 4.0 mph 98 % 0.00 in
06:43 67.3 °F 66.7 °F 30.17 in East 1.0 mph 4.0 mph 98 % 0.00 in
06:48 67.3 °F 66.7 °F 30.17 in Calm   3.0 mph 98 % 0.00 in
06:53 67.3 °F 66.7 °F 30.17 in SSE 2.0 mph 4.0 mph 98 % 0.00 in
06:58 67.3 °F 66.7 °F 30.17 in ESE 5.0 mph 5.0 mph 98 % 0.00 in
07:03 67.5 °F 66.9 °F 30.17 in SE 1.0 mph 5.0 mph 98 % 0.00 in
07:09 67.5 °F 67.1 °F 30.17 in Calm   5.0 mph 99 % 0.00 in
07:14 67.5 °F 66.9 °F 30.17 in East 3.0 mph 5.0 mph 98 % 0.00 in
07:19 67.6 °F 67.1 °F 30.17 in SSE 1.0 mph 5.0 mph 98 % 0.00 in
07:24 67.6 °F 67.1 °F 30.17 in ESE 2.0 mph 5.0 mph 98 % 0.00 in
07:25 67.6 °F 67.1 °F 30.17 in SSE 1.0 mph 5.0 mph 98 % 0.00 in
07:30 67.8 °F 67.3 °F 30.18 in ESE 3.0 mph 6.0 mph 98 % 0.00 in
07:35 67.8 °F 67.3 °F 30.18 in SE 1.0 mph 6.0 mph 98 % 0.00 in
07:40 67.8 °F 67.3 °F 30.18 in SE 1.0 mph 6.0 mph 98 % 0.00 in
07:45 68.0 °F 67.5 °F 30.18 in East 2.0 mph 5.0 mph 98 % 0.00 in
07:50 68.2 °F 67.6 °F 30.18 in ESE 3.0 mph 5.0 mph 98 % 0.00 in
07:55 68.2 °F 67.6 °F 30.18 in ESE 7.0 mph 7.0 mph 98 % 0.00 in
08:00 68.4 °F 67.8 °F 30.18 in ESE 1.0 mph 7.0 mph 98 % 0.00 in
08:05 68.5 °F 68.0 °F 30.18 in SE 4.0 mph 7.0 mph 98 % 0.00 in
08:10 68.5 °F 68.0 °F 30.19 in South 4.0 mph 7.0 mph 98 % 0.00 in
08:15 68.5 °F 68.0 °F 30.19 in ESE 2.0 mph 6.0 mph 98 % 0.00 in
08:20 68.7 °F 67.8 °F 30.19 in SE 1.0 mph 6.0 mph 97 % 0.00 in
08:25 68.9 °F 68.0 °F 30.19 in SSE 3.0 mph 6.0 mph 97 % 0.00 in
08:30 69.1 °F 68.2 °F 30.19 in ESE 2.0 mph 7.0 mph 97 % 0.00 in
08:36 69.3 °F 68.4 °F 30.19 in ESE 3.0 mph 7.0 mph 97 % 0.00 in
08:41 69.3 °F 68.4 °F 30.19 in ESE 7.0 mph 7.0 mph 97 % 0.00 in
08:46 69.4 °F 68.2 °F 30.19 in Calm   7.0 mph 96 % 0.00 in
08:51 69.4 °F 68.2 °F 30.19 in SE 1.0 mph 7.0 mph 96 % 0.00 in
08:56 69.4 °F 68.2 °F 30.19 in ESE 2.0 mph 8.0 mph 96 % 0.00 in
09:01 69.6 °F 68.4 °F 30.20 in SSE 1.0 mph 8.0 mph 96 % 0.00 in
09:06 69.8 °F 68.4 °F 30.19 in SE 2.0 mph 8.0 mph 95 % 0.00 in
09:11 70.0 °F 68.5 °F 30.20 in ENE 5.0 mph 6.0 mph 95 % 0.00 in
09:16 70.3 °F 68.9 °F 30.20 in ESE 2.0 mph 6.0 mph 95 % 0.00 in
09:21 70.5 °F 68.7 °F 30.20 in SSE 1.0 mph 6.0 mph 94 % 0.00 in
09:26 70.7 °F 68.9 °F 30.20 in SSE 4.0 mph 6.0 mph 94 % 0.00 in
09:31 70.9 °F 68.7 °F 30.20 in SE 4.0 mph 8.0 mph 93 % 0.00 in
09:36 71.1 °F 68.9 °F 30.20 in ESE 2.0 mph 8.0 mph 93 % 0.00 in
09:41 71.2 °F 68.7 °F 30.20 in ESE 7.0 mph 8.0 mph 92 % 0.00 in
09:46 71.4 °F 68.7 °F 30.20 in East 3.0 mph 7.0 mph 91 % 0.00 in
09:51 71.4 °F 68.7 °F 30.20 in SSE 2.0 mph 10.0 mph 91 % 0.00 in
09:56 71.4 °F 68.4 °F 30.20 in SSE 2.0 mph 10.0 mph 90 % 0.00 in
10:01 71.8 °F 68.7 °F 30.20 in East 4.0 mph 10.0 mph 90 % 0.00 in
10:06 72.0 °F 68.9 °F 30.20 in South 5.0 mph 8.0 mph 90 % 0.00 in
10:11 72.1 °F 68.7 °F 30.19 in SSE 3.0 mph 11.0 mph 89 % 0.00 in
10:16 72.5 °F 69.1 °F 30.19 in SE 4.0 mph 11.0 mph 89 % 0.00 in
10:21 72.9 °F 69.4 °F 30.19 in SSW 5.0 mph 11.0 mph 89 % 0.00 in
10:26 73.0 °F 69.3 °F 30.19 in SSE 6.0 mph 10.0 mph 88 % 0.00 in
10:31 73.2 °F 69.1 °F 30.19 in ESE 7.0 mph 11.0 mph 87 % 0.00 in
10:36 73.6 °F 69.4 °F 30.19 in SSE 6.0 mph 11.0 mph 87 % 0.00 in
10:41 73.8 °F 69.3 °F 30.19 in East 4.0 mph 11.0 mph 86 % 0.00 in
10:46 74.1 °F 69.6 °F 30.18 in SSE 3.0 mph 9.0 mph 86 % 0.00 in
10:51 74.5 °F 69.6 °F 30.18 in ESE 4.0 mph 9.0 mph 85 % 0.00 in
10:56 74.7 °F 69.8 °F 30.18 in East 6.0 mph 11.0 mph 85 % 0.00 in
11:01 74.7 °F 69.4 °F 30.18 in ENE 7.0 mph 11.0 mph 84 % 0.00 in
11:06 74.8 °F 69.3 °F 30.18 in SE 5.0 mph 11.0 mph 83 % 0.00 in
11:11 75.0 °F 69.4 °F 30.18 in SE 5.0 mph 11.0 mph 83 % 0.00 in
11:16 75.6 °F 70.0 °F 30.18 in ENE 6.0 mph 10.0 mph 83 % 0.00 in
11:21 75.6 °F 69.3 °F 30.18 in SE 3.0 mph 10.0 mph 81 % 0.00 in
11:22 75.6 °F 69.3 °F 30.18 in ESE 6.0 mph 10.0 mph 81 % 0.00 in
11:27 75.7 °F 69.4 °F 30.18 in SE 3.0 mph 10.0 mph 81 % 0.00 in
11:32 75.6 °F 69.3 °F 30.17 in South 3.0 mph 10.0 mph 81 % 0.00 in
11:37 75.6 °F 68.9 °F 30.17 in SSE 3.0 mph 9.0 mph 80 % 0.00 in
11:42 75.7 °F 69.1 °F 30.17 in SSE 6.0 mph 9.0 mph 80 % 0.00 in
11:47 75.7 °F 69.4 °F 30.17 in SE 4.0 mph 9.0 mph 81 % 0.00 in
11:52 75.6 °F 68.9 °F 30.17 in South 4.0 mph 9.0 mph 80 % 0.00 in
11:57 75.6 °F 68.9 °F 30.17 in South 6.0 mph 9.0 mph 80 % 0.00 in
12:02 75.6 °F 69.3 °F 30.16 in SSW 1.0 mph 9.0 mph 81 % 0.00 in
12:07 75.9 °F 69.3 °F 30.16 in ESE 3.0 mph 9.0 mph 80 % 0.00 in
12:12 75.7 °F 69.1 °F 30.16 in SE 3.0 mph 8.0 mph 80 % 0.00 in
12:17 75.6 °F 68.9 °F 30.16 in ESE 3.0 mph 8.0 mph 80 % 0.00 in
12:22 75.4 °F 69.1 °F 30.15 in SSE 5.0 mph 9.0 mph 81 % 0.00 in
12:27 75.4 °F 69.1 °F 30.15 in SE 4.0 mph 9.0 mph 81 % 0.00 in
12:32 75.6 °F 69.3 °F 30.15 in SE 5.0 mph 9.0 mph 81 % 0.00 in
12:33 75.6 °F 69.3 °F 30.15 in SSW 6.0 mph 9.0 mph 81 % 0.00 in
12:35 75.6 °F 69.3 °F 30.15 in SE 5.0 mph 9.0 mph 81 % 0.00 in
12:37 75.7 °F 69.4 °F 30.15 in ESE 5.0 mph 8.0 mph 81 % 0.00 in
12:38 75.7 °F 69.1 °F 30.15 in SSE 3.0 mph 8.0 mph 80 % 0.00 in
12:42 75.9 °F 69.6 °F 30.15 in SSE 5.0 mph 8.0 mph 81 % 0.00 in
12:45 76.1 °F 69.4 °F 30.14 in SE 6.0 mph 8.0 mph 80 % 0.00 in
12:49 76.1 °F 69.1 °F 30.14 in SSE 9.0 mph 9.0 mph 79 % 0.00 in
12:54 76.5 °F 70.2 °F 30.14 in ESE 6.0 mph 12.0 mph 81 % 0.00 in
12:59 76.6 °F 69.6 °F 30.13 in SE 3.0 mph 12.0 mph 79 % 0.00 in
13:04 76.8 °F 69.4 °F 30.13 in ESE 8.0 mph 12.0 mph 78 % 0.00 in
13:09 76.6 °F 69.6 °F 30.13 in SSW 6.0 mph 9.0 mph 79 % 0.00 in
13:14 76.5 °F 69.8 °F 30.12 in SSE 7.0 mph 10.0 mph 80 % 0.00 in
13:19 76.6 °F 70.0 °F 30.12 in SE 3.0 mph 10.0 mph 80 % 0.00 in
13:24 77.2 °F 70.5 °F 30.11 in SE 4.0 mph 10.0 mph 80 % 0.00 in
13:29 77.4 °F 70.0 °F 30.11 in SSE 2.0 mph 10.0 mph 78 % 0.00 in
13:34 77.7 °F 70.3 °F 30.11 in East 7.0 mph 7.0 mph 78 % 0.00 in
13:39 78.3 °F 70.0 °F 30.10 in SSE 2.0 mph 8.0 mph 76 % 0.00 in
13:44 78.4 °F 69.8 °F 30.10 in SE 4.0 mph 9.0 mph 75 % 0.00 in
13:49 77.9 °F 70.2 °F 30.10 in ESE 7.0 mph 9.0 mph 77 % 0.00 in
13:54 77.4 °F 70.3 °F 30.09 in South 1.0 mph 11.0 mph 79 % 0.00 in
13:59 77.2 °F 70.2 °F 30.09 in SE 9.0 mph 11.0 mph 79 % 0.00 in
14:04 76.8 °F 69.8 °F 30.09 in SE 6.0 mph 11.0 mph 79 % 0.00 in
14:09 77.2 °F 69.8 °F 30.09 in SE 6.0 mph 12.0 mph 78 % 0.00 in
14:14 77.4 °F 70.0 °F 30.09 in SE 10.0 mph 12.0 mph 78 % 0.00 in
14:19 77.7 °F 70.0 °F 30.09 in SE 4.0 mph 12.0 mph 77 % 0.00 in
14:24 77.7 °F 70.0 °F 30.09 in SSE 5.0 mph 12.0 mph 77 % 0.00 in
14:29 77.5 °F 69.8 °F 30.09 in SE 3.0 mph 12.0 mph 77 % 0.00 in
14:34 77.2 °F 69.8 °F 30.08 in SE 5.0 mph 12.0 mph 78 % 0.00 in
14:39 77.0 °F 69.6 °F 30.08 in SSE 5.0 mph 11.0 mph 78 % 0.00 in
14:44 76.8 °F 69.8 °F 30.08 in East 12.0 mph 12.0 mph 79 % 0.00 in
14:49 76.6 °F 70.0 °F 30.08 in SE 6.0 mph 12.0 mph 80 % 0.00 in
14:54 76.6 °F 70.0 °F 30.08 in ESE 5.0 mph 12.0 mph 80 % 0.00 in
14:58 76.5 °F 69.8 °F 30.08 in East 4.0 mph 12.0 mph 80 % 0.00 in
15:03 76.3 °F 70.0 °F 30.07 in SE 3.0 mph 11.0 mph 81 % 0.00 in
15:08 76.3 °F 70.0 °F 30.07 in East 3.0 mph 9.0 mph 81 % 0.00 in
15:13 76.3 °F 70.0 °F 30.07 in ESE 5.0 mph 8.0 mph 81 % 0.00 in
15:18 76.3 °F 70.0 °F 30.07 in ENE 4.0 mph 10.0 mph 81 % 0.00 in
15:23 76.3 °F 69.6 °F 30.07 in ESE 7.0 mph 10.0 mph 80 % 0.00 in
15:28 76.3 °F 69.6 °F 30.07 in ESE 6.0 mph 10.0 mph 80 % 0.00 in
15:33 76.3 °F 69.6 °F 30.07 in SE 3.0 mph 8.0 mph 80 % 0.00 in
15:38 76.3 °F 69.3 °F 30.07 in SSE 4.0 mph 8.0 mph 79 % 0.00 in
15:43 76.3 °F 69.3 °F 30.06 in SE 7.0 mph 8.0 mph 79 % 0.00 in
15:48 76.3 °F 69.3 °F 30.07 in ESE 8.0 mph 11.0 mph 79 % 0.00 in
15:53 76.3 °F 69.3 °F 30.06 in ESE 11.0 mph 12.0 mph 79 % 0.00 in
15:58 76.3 °F 69.3 °F 30.06 in ESE 5.0 mph 12.0 mph 79 % 0.00 in
16:03 76.3 °F 68.9 °F 30.06 in SE 5.0 mph 12.0 mph 78 % 0.00 in
16:08 76.3 °F 68.9 °F 30.06 in South 4.0 mph 11.0 mph 78 % 0.00 in
16:13 76.5 °F 69.1 °F 30.06 in SE 2.0 mph 9.0 mph 78 % 0.00 in
16:18 76.5 °F 69.1 °F 30.06 in SE 6.0 mph 9.0 mph 78 % 0.00 in
16:23 76.5 °F 69.1 °F 30.06 in SSE 4.0 mph 10.0 mph 78 % 0.00 in
16:28 76.5 °F 69.1 °F 30.06 in SSW 2.0 mph 10.0 mph 78 % 0.00 in
16:33 76.6 °F 69.3 °F 30.06 in SSE 3.0 mph 10.0 mph 78 % 0.00 in
16:38 76.6 °F 68.9 °F 30.06 in SE 3.0 mph 9.0 mph 77 % 0.00 in
16:43 76.8 °F 68.7 °F 30.06 in SSE 2.0 mph 9.0 mph 76 % 0.00 in
16:48 76.8 °F 68.7 °F 30.06 in SE 4.0 mph 9.0 mph 76 % 0.00 in
16:53 77.0 °F 68.9 °F 30.06 in SE 4.0 mph 8.0 mph 76 % 0.00 in
16:59 77.2 °F 69.1 °F 30.05 in SSE 4.0 mph 9.0 mph 76 % 0.00 in
17:04 77.2 °F 69.1 °F 30.05 in SSE 4.0 mph 9.0 mph 76 % 0.00 in
17:09 77.2 °F 69.1 °F 30.05 in SSE 5.0 mph 11.0 mph 76 % 0.00 in
17:14 76.8 °F 68.7 °F 30.05 in SSW 3.0 mph 11.0 mph 76 % 0.00 in
17:19 76.6 °F 68.9 °F 30.05 in SSE 4.0 mph 11.0 mph 77 % 0.00 in
17:24 76.6 °F 68.9 °F 30.05 in SE 3.0 mph 10.0 mph 77 % 0.00 in
17:29 76.5 °F 68.7 °F 30.05 in SSW 8.0 mph 9.0 mph 77 % 0.00 in
17:34 76.5 °F 68.7 °F 30.05 in SSE 3.0 mph 10.0 mph 77 % 0.00 in
17:39 76.5 °F 68.7 °F 30.04 in South 3.0 mph 10.0 mph 77 % 0.00 in
17:44 76.3 °F 68.9 °F 30.04 in SSE 8.0 mph 10.0 mph 78 % 0.00 in
17:49 76.3 °F 68.9 °F 30.04 in ESE 3.0 mph 10.0 mph 78 % 0.00 in
17:54 76.3 °F 68.9 °F 30.04 in South 5.0 mph 10.0 mph 78 % 0.00 in
17:59 75.9 °F 68.5 °F 30.05 in South 6.0 mph 10.0 mph 78 % 0.00 in
18:04 75.9 °F 68.9 °F 30.06 in SE 4.0 mph 9.0 mph 79 % 0.00 in
18:09 75.7 °F 68.7 °F 30.06 in SSE 2.0 mph 9.0 mph 79 % 0.00 in
18:14 75.7 °F 69.1 °F 30.06 in South 4.0 mph 9.0 mph 80 % 0.00 in
18:19 75.6 °F 68.9 °F 30.06 in SE 4.0 mph 8.0 mph 80 % 0.00 in
18:24 75.4 °F 69.1 °F 30.06 in ESE 2.0 mph 8.0 mph 81 % 0.00 in
18:29 75.2 °F 68.9 °F 30.06 in SE 2.0 mph 7.0 mph 81 % 0.00 in
18:34 75.0 °F 69.1 °F 30.07 in SSE 2.0 mph 6.0 mph 82 % 0.00 in
18:39 75.0 °F 69.1 °F 30.07 in SE 1.0 mph 5.0 mph 82 % 0.00 in
18:44 75.0 °F 69.1 °F 30.07 in ESE 1.0 mph 4.0 mph 82 % 0.00 in
18:49 75.0 °F 69.1 °F 30.07 in SSE 2.0 mph 4.0 mph 82 % 0.00 in
18:54 75.0 °F 69.4 °F 30.07 in South 2.0 mph 6.0 mph 83 % 0.00 in
18:59 75.0 °F 69.4 °F 30.07 in South 3.0 mph 6.0 mph 83 % 0.00 in
19:04 75.0 °F 69.4 °F 30.08 in SSE 2.0 mph 6.0 mph 83 % 0.00 in
19:09 75.0 °F 69.4 °F 30.08 in East 2.0 mph 7.0 mph 83 % 0.00 in
19:14 75.0 °F 69.4 °F 30.09 in SSE 3.0 mph 7.0 mph 83 % 0.00 in
19:19 74.8 °F 69.3 °F 30.09 in SE 4.0 mph 7.0 mph 83 % 0.00 in
19:24 74.8 °F 69.6 °F 30.09 in South 4.0 mph 6.0 mph 84 % 0.00 in
19:29 74.8 °F 69.6 °F 30.09 in South 2.0 mph 6.0 mph 84 % 0.00 in
19:34 74.7 °F 69.4 °F 30.09 in SE 6.0 mph 6.0 mph 84 % 0.00 in
19:39 74.7 °F 69.8 °F 30.09 in SSE 3.0 mph 7.0 mph 85 % 0.00 in
19:44 74.5 °F 70.0 °F 30.09 in SSE 3.0 mph 7.0 mph 86 % 0.00 in
19:49 74.5 °F 70.0 °F 30.10 in ESE 6.0 mph 8.0 mph 86 % 0.00 in
19:54 74.5 °F 70.0 °F 30.10 in SSE 2.0 mph 8.0 mph 86 % 0.00 in
19:59 74.3 °F 69.8 °F 30.10 in SSW 1.0 mph 8.0 mph 86 % 0.00 in
20:04 74.1 °F 70.0 °F 30.11 in South 2.0 mph 7.0 mph 87 % 0.00 in
20:09 73.9 °F 69.8 °F 30.11 in SSE 1.0 mph 6.0 mph 87 % 0.00 in
20:14 73.9 °F 69.8 °F 30.11 in SSW 4.0 mph 4.0 mph 87 % 0.00 in
20:19 73.9 °F 69.8 °F 30.11 in SSW 3.0 mph 9.0 mph 87 % 0.00 in
20:24 73.9 °F 70.2 °F 30.11 in SSE 3.0 mph 9.0 mph 88 % 0.00 in
20:29 73.8 °F 70.0 °F 30.12 in SSW 3.0 mph 9.0 mph 88 % 0.00 in
20:35 73.8 °F 70.0 °F 30.12 in South 3.0 mph 8.0 mph 88 % 0.00 in
20:39 73.8 °F 70.0 °F 30.11 in SE 5.0 mph 7.0 mph 88 % 0.00 in
20:44 73.6 °F 69.8 °F 30.12 in SSE 4.0 mph 7.0 mph 88 % 0.00 in
20:50 73.6 °F 69.8 °F 30.12 in South 1.0 mph 7.0 mph 88 % 0.00 in
20:55 73.6 °F 70.2 °F 30.12 in SSE 1.0 mph 6.0 mph 89 % 0.00 in
21:00 73.2 °F 69.8 °F 30.12 in SE 2.0 mph 6.0 mph 89 % 0.00 in
21:05 73.2 °F 69.8 °F 30.12 in SSE 2.0 mph 6.0 mph 89 % 0.00 in
21:10 73.2 °F 69.8 °F 30.12 in Calm   6.0 mph 89 % 0.00 in
21:15 73.0 °F 69.6 °F 30.12 in SSE 2.0 mph 6.0 mph 89 % 0.00 in
21:20 73.0 °F 69.6 °F 30.12 in SSE 2.0 mph 7.0 mph 89 % 0.00 in
21:25 72.9 °F 69.8 °F 30.12 in SSW 1.0 mph 7.0 mph 90 % 0.00 in
21:30 72.9 °F 69.8 °F 30.12 in SSE 3.0 mph 7.0 mph 90 % 0.00 in
21:35 72.9 °F 69.8 °F 30.13 in SE 1.0 mph 7.0 mph 90 % 0.00 in
21:40 72.9 °F 69.8 °F 30.13 in SE 1.0 mph 4.0 mph 90 % 0.00 in
21:45 72.7 °F 69.6 °F 30.13 in SSW 2.0 mph 4.0 mph 90 % 0.00 in
21:50 72.7 °F 69.6 °F 30.13 in SSE 1.0 mph 3.0 mph 90 % 0.00 in
21:55 72.7 °F 69.6 °F 30.13 in SSE 1.0 mph 3.0 mph 90 % 0.00 in
22:00 72.7 °F 69.6 °F 30.12 in SSE 1.0 mph 3.0 mph 90 % 0.00 in
22:05 72.7 °F 69.6 °F 30.12 in SE 2.0 mph 3.0 mph 90 % 0.00 in
22:10 72.5 °F 69.4 °F 30.12 in Calm   3.0 mph 90 % 0.00 in
22:15 72.5 °F 69.8 °F 30.12 in SE 2.0 mph 4.0 mph 91 % 0.00 in
22:20 72.5 °F 69.8 °F 30.12 in SSE 2.0 mph 4.0 mph 91 % 0.00 in
22:25 72.5 °F 69.8 °F 30.11 in SE 1.0 mph 4.0 mph 91 % 0.00 in
22:30 72.3 °F 69.6 °F 30.11 in SE 3.0 mph 4.0 mph 91 % 0.00 in
22:35 72.3 °F 69.6 °F 30.11 in SE 3.0 mph 6.0 mph 91 % 0.00 in
22:40 72.1 °F 69.4 °F 30.10 in SSE 2.0 mph 6.0 mph 91 % 0.00 in
22:45 72.0 °F 69.3 °F 30.10 in SE 2.0 mph 6.0 mph 91 % 0.00 in
22:50 72.0 °F 69.4 °F 30.10 in SSE 1.0 mph 4.0 mph 92 % 0.00 in
22:55 71.8 °F 69.3 °F 30.09 in South 2.0 mph 4.0 mph 92 % 0.00 in
23:00 71.6 °F 69.1 °F 30.10 in Calm   4.0 mph 92 % 0.00 in
23:05 71.4 °F 68.9 °F 30.10 in Calm   3.0 mph 92 % 0.00 in
23:10 71.4 °F 68.9 °F 30.09 in SSE 3.0 mph 3.0 mph 92 % 0.00 in
23:15 71.4 °F 69.3 °F 30.09 in SSE 3.0 mph 5.0 mph 93 % 0.00 in
23:20 71.2 °F 69.1 °F 30.08 in SE 5.0 mph 6.0 mph 93 % 0.00 in
23:25 71.2 °F 69.1 °F 30.09 in SSE 3.0 mph 6.0 mph 93 % 0.00 in
23:30 71.2 °F 69.1 °F 30.09 in SSE 2.0 mph 6.0 mph 93 % 0.00 in
23:35 71.2 °F 69.1 °F 30.09 in South 4.0 mph 6.0 mph 93 % 0.00 in
23:40 71.1 °F 69.3 °F 30.09 in South 2.0 mph 6.0 mph 94 % 0.00 in
23:45 71.1 °F 69.3 °F 30.09 in SW 4.0 mph 5.0 mph 94 % 0.00 in
23:50 70.9 °F 69.1 °F 30.08 in SSE 4.0 mph 5.0 mph 94 % 0.00 in
23:55 70.9 °F 69.1 °F 30.08 in SSE 3.0 mph 6.0 mph 94 % 0.00 in
Spring, Texas: Villages of Bridgestone
Compliments of Weather Underground - 2.75 mb

Script developed by  Jim McMurry - jmcmurry@mwt.net Adapted for the template by  Wim van der Kuil - Leuven-Template.eu

You find our weather info also at:

UK Metoffice

WeatherCloud

Weather Underground

Mid-South Weather Network

AWEKAS

Citizen Weather Observer Program (CWOP)

HAMweather, WeatherForYou, PWS Weather

Equipment we use:

Weather-station
Davis Vantage Vue

Weather-program
Meteohub

Weather-server
Debian 7.9 x86 (Guest)

Provider
DreamHost

Davis Vantage Vue

Meteohub

Debian 7.9 x86 (Guest)

DreamHost